createdAt,value
2023-03-29T00:06:22.628Z,3.00
2023-03-29T00:14:48.050Z,2.80
2023-03-29T00:23:11.636Z,3.00
2023-03-29T00:31:35.215Z,3.50
2023-03-29T00:39:58.520Z,3.30
2023-03-29T00:48:30.295Z,3.60
2023-03-29T00:56:54.707Z,3.10
2023-03-29T01:05:24.522Z,3.00
2023-03-29T01:22:29.122Z,3.10
2023-03-29T01:31:11.284Z,3.30
2023-03-29T01:39:37.402Z,3.90
2023-03-29T01:48:32.681Z,3.90
2023-03-29T01:56:58.214Z,4.90
2023-03-29T02:05:24.650Z,4.50
2023-03-29T02:13:51.124Z,3.80
2023-03-29T02:22:24.133Z,4.60
2023-03-29T02:30:57.640Z,4.90
2023-03-29T02:39:25.518Z,4.50
2023-03-29T02:56:22.161Z,4.60
2023-03-29T03:04:45.400Z,4.00
2023-03-29T03:13:24.710Z,4.60
2023-03-29T03:21:49.765Z,6.60
2023-03-29T03:30:18.257Z,4.30
2023-03-29T03:38:59.847Z,4.30
2023-03-29T03:47:24.153Z,5.50
2023-03-29T03:55:49.561Z,5.10
2023-03-29T04:04:19.731Z,7.20
2023-03-29T04:13:02.708Z,5.50
2023-03-29T04:21:26.590Z,7.00
2023-03-29T04:29:49.792Z,6.60
2023-03-29T04:38:23.610Z,5.50
2023-03-29T04:46:48.423Z,7.90
2023-03-29T04:55:30.836Z,5.70
2023-03-29T05:03:58.055Z,6.70
2023-03-29T05:12:26.619Z,5.90
2023-03-29T05:20:53.132Z,6.80
2023-03-29T05:29:16.673Z,6.50
2023-03-29T05:37:41.234Z,5.00
2023-03-29T05:46:06.281Z,5.10
2023-03-29T05:54:30.100Z,6.20
2023-03-29T06:02:53.923Z,6.40
2023-03-29T06:11:18.537Z,6.10
2023-03-29T06:20:01.161Z,5.80
2023-03-29T06:28:26.139Z,4.60
2023-03-29T06:36:51.227Z,4.60
2023-03-29T06:45:16.226Z,5.20
2023-03-29T06:53:43.018Z,3.90
2023-03-29T07:02:07.592Z,4.10
2023-03-29T07:10:47.590Z,4.60
2023-03-29T07:19:31.744Z,4.20
2023-03-29T07:28:01.634Z,3.90
2023-03-29T07:36:25.316Z,3.00
2023-03-29T07:44:48.653Z,3.90
2023-03-29T07:53:12.625Z,3.80
2023-03-29T08:01:36.077Z,3.80
2023-03-29T08:10:10.051Z,3.40
2023-03-29T08:18:45.097Z,3.90
2023-03-29T08:27:08.423Z,3.20
2023-03-29T08:35:31.600Z,2.10
2023-03-29T08:44:29.974Z,2.50
2023-03-29T08:53:06.806Z,2.40
2023-03-29T09:01:54.411Z,1.90
2023-03-29T09:10:21.309Z,2.60
2023-03-29T09:18:47.590Z,2.00
2023-03-29T09:27:16.872Z,1.90
2023-03-29T09:36:02.062Z,1.70
2023-03-29T09:44:38.520Z,1.70
2023-03-29T09:53:05.521Z,1.70
2023-03-29T10:01:38.722Z,2.00
2023-03-29T10:10:02.748Z,1.50
2023-03-29T10:18:27.789Z,1.60
2023-03-29T10:27:00.158Z,1.50
2023-03-29T10:35:28.325Z,1.20
2023-03-29T10:43:51.833Z,1.40
2023-03-29T10:52:16.574Z,1.30
2023-03-29T11:00:59.952Z,1.50
2023-03-29T11:09:47.879Z,1.50
2023-03-29T11:18:16.939Z,1.40
2023-03-29T11:26:55.796Z,1.50
2023-03-29T11:35:41.878Z,1.90
2023-03-29T11:44:11.166Z,1.60
2023-03-29T11:52:36.497Z,1.50
2023-03-29T12:01:17.931Z,2.00
2023-03-29T12:10:00.140Z,1.60
2023-03-29T12:18:29.084Z,1.60
2023-03-29T12:26:58.758Z,1.50
2023-03-29T12:35:40.460Z,1.70
2023-03-29T12:44:24.130Z,1.80
2023-03-29T12:52:53.980Z,1.90
2023-03-29T13:01:37.225Z,2.10
2023-03-29T13:18:44.868Z,4.00
2023-03-29T13:27:26.339Z,2.00
2023-03-29T13:36:05.856Z,4.20
2023-03-29T13:44:42.075Z,5.90
2023-03-29T13:53:12.629Z,3.10
2023-03-29T14:01:58.088Z,10.00
2023-03-29T14:10:35.116Z,35.70
2023-03-29T14:19:35.624Z,5.70
2023-03-29T14:27:58.662Z,3.20
2023-03-29T14:36:22.800Z,5.20
2023-03-29T14:44:46.158Z,3.30
2023-03-29T14:53:19.958Z,2.70
2023-03-29T15:01:46.172Z,3.10
2023-03-29T15:10:19.349Z,4.30
2023-03-29T15:18:44.888Z,41.20
2023-03-29T15:27:18.341Z,17.30
2023-03-29T15:35:42.764Z,20.80
2023-03-29T15:44:06.510Z,5.20
2023-03-29T15:52:29.647Z,3.50
2023-03-29T16:01:13.510Z,4.50
2023-03-29T16:09:37.175Z,21.00
2023-03-29T16:18:00.871Z,21.30
2023-03-29T16:26:26.341Z,4.80
2023-03-29T16:34:49.337Z,27.60
2023-03-29T16:43:16.786Z,3.30
2023-03-29T16:51:40.881Z,4.00
2023-03-29T17:00:06.291Z,5.90
2023-03-29T17:08:29.311Z,30.90
2023-03-29T17:16:55.470Z,37.00
2023-03-29T17:25:18.971Z,24.20
2023-03-29T17:33:42.113Z,17.70
2023-03-29T17:42:06.265Z,28.90
2023-03-29T17:50:29.605Z,27.20
2023-03-29T17:58:53.048Z,57.30
2023-03-29T18:07:16.891Z,56.90
2023-03-29T18:15:40.057Z,107.30
2023-03-29T18:24:03.967Z,122.50
2023-03-29T18:32:28.209Z,173.50
2023-03-29T18:40:52.018Z,257.50
2023-03-29T18:49:16.522Z,262.70
2023-03-29T18:57:39.716Z,279.30
2023-03-29T19:06:05.088Z,262.60
2023-03-29T19:14:29.403Z,256.10
2023-03-29T19:22:53.936Z,207.10
2023-03-29T19:31:17.183Z,170.70
2023-03-29T19:39:41.759Z,132.40
2023-03-29T19:48:04.895Z,116.30
2023-03-29T19:56:28.175Z,120.40
2023-03-29T20:04:51.276Z,89.10
2023-03-29T20:13:21.805Z,67.90
2023-03-29T20:21:50.831Z,72.10
2023-03-29T20:30:14.728Z,82.80
2023-03-29T20:38:39.817Z,95.00
2023-03-29T20:47:05.115Z,99.40
2023-03-29T20:55:31.428Z,92.10
2023-03-29T21:03:57.182Z,82.90
2023-03-29T21:12:21.098Z,73.80
2023-03-29T21:20:44.606Z,59.10
2023-03-29T21:29:08.033Z,56.50
2023-03-29T21:37:31.225Z,39.20
2023-03-29T21:45:55.644Z,51.20
2023-03-29T21:54:20.095Z,43.10
2023-03-29T22:02:43.385Z,39.60
2023-03-29T22:11:11.879Z,32.70
2023-03-29T22:19:39.716Z,29.80
2023-03-29T22:28:03.066Z,21.80
2023-03-29T22:36:31.197Z,21.60
2023-03-29T22:44:54.830Z,19.30
2023-03-29T22:53:18.116Z,17.20
2023-03-29T23:01:42.548Z,16.20
2023-03-29T23:10:07.235Z,14.60
2023-03-29T23:18:32.660Z,14.70
2023-03-29T23:26:56.368Z,13.40
2023-03-29T23:35:22.081Z,13.50
2023-03-29T23:43:47.446Z,13.70
2023-03-29T23:52:12.612Z,14.50
